Time;durP1;ratioP1;P1;durP2;ratioP2;P2;SDS_P1;SDS_P2;PMS_P1;PMS_P2;Temp;Humidity;BMP_temperature;BMP_pressure;BME280_temperature;BME280_humidity;BME280_pressure;Samples;Min_cycle;Max_cycle;Signal;HPM_P1;HPM_P2
2022/05/06 00:01:03;;;;;;;27.30;16.90;;;15.30;99.90;;;;;;5067469;28;20583;-70
2022/05/06 00:03:29;;;;;;;24.63;16.40;;;15.10;99.90;;;;;;5070128;28;20181;-71
2022/05/06 00:05:55;;;;;;;23.23;15.83;;;15.10;99.90;;;;;;5069190;28;20459;-71
2022/05/06 00:08:20;;;;;;;25.97;16.23;;;15.20;99.90;;;;;;5068866;28;20182;-70
2022/05/06 00:10:46;;;;;;;24.93;14.87;;;15.20;99.90;;;;;;5068853;28;20351;-71
2022/05/06 00:13:11;;;;;;;22.73;15.60;;;15.20;99.90;;;;;;5070336;28;20168;-72
2022/05/06 00:15:37;;;;;;;27.03;14.33;;;15.20;99.90;;;;;;5069039;28;20797;-71
2022/05/06 00:18:03;;;;;;;21.07;14.47;;;15.20;99.90;;;;;;5069687;28;20245;-71
2022/05/06 00:20:29;;;;;;;21.90;14.40;;;15.20;99.90;;;;;;5069462;28;20917;-71
2022/05/06 00:22:57;;;;;;;20.13;14.33;;;15.20;99.90;;;;;;5068518;28;20260;-71
2022/05/06 00:25:23;;;;;;;23.10;15.20;;;15.10;99.90;;;;;;5067319;28;20188;-71
2022/05/06 00:27:49;;;;;;;22.07;14.80;;;15.10;99.90;;;;;;5068352;28;20450;-71
2022/05/06 00:30:14;;;;;;;19.63;14.77;;;15.10;99.90;;;;;;5061432;28;20524;-70
2022/05/06 00:32:40;;;;;;;21.77;15.00;;;15.10;99.90;;;;;;5067403;28;20262;-71
2022/05/06 00:35:06;;;;;;;27.20;14.53;;;14.10;99.90;;;;;;5069147;28;20298;-71
2022/05/06 00:37:31;;;;;;;21.70;13.90;;;15.10;99.90;;;;;;5068679;28;20567;-71
2022/05/06 00:39:57;;;;;;;24.40;14.63;;;15.10;99.90;;;;;;5061845;28;20181;-71
2022/05/06 00:42:22;;;;;;;22.87;14.57;;;15.10;99.90;;;;;;5056384;28;20213;-71
2022/05/06 00:44:48;;;;;;;22.40;14.77;;;15.90;99.90;;;;;;5066412;28;20199;-71
2022/05/06 00:47:16;;;;;;;21.93;14.90;;;15.10;99.90;;;;;;5067590;28;20183;-71
2022/05/06 00:49:42;;;;;;;20.90;14.27;;;15.00;99.90;;;;;;5068932;28;20245;-70
2022/05/06 00:52:08;;;;;;;20.07;14.83;;;15.00;99.90;;;;;;5068443;28;20944;-71
2022/05/06 00:54:34;;;;;;;21.90;14.77;;;15.00;99.90;;;;;;5069120;28;20208;-70
2022/05/06 00:57:01;;;;;;;18.43;13.60;;;15.00;99.90;;;;;;5069148;28;20398;-71
2022/05/06 00:59:27;;;;;;;26.10;15.43;;;14.90;99.90;;;;;;5067573;28;20543;-70
2022/05/06 01:01:52;;;;;;;18.27;13.20;;;14.90;99.90;;;;;;5065584;28;21001;-71
2022/05/06 01:04:18;;;;;;;18.63;13.13;;;14.90;99.90;;;;;;5065979;28;20204;-70
2022/05/06 01:06:45;;;;;;;21.97;13.83;;;14.90;99.90;;;;;;5066826;28;20191;-71
2022/05/06 01:09:17;;;;;;;21.20;13.80;;;15.00;99.90;;;;;;5068657;28;20430;-71
2022/05/06 01:11:44;;;;;;;17.67;13.50;;;15.00;99.90;;;;;;5068390;28;20752;-71
2022/05/06 01:14:10;;;;;;;21.83;12.90;;;14.90;99.90;;;;;;5068679;28;20446;-70
2022/05/06 01:16:36;;;;;;;18.40;13.33;;;14.90;99.90;;;;;;5068308;28;20410;-71
2022/05/06 01:19:03;;;;;;;21.10;14.47;;;14.80;99.90;;;;;;5068155;28;20622;-71
2022/05/06 01:21:34;;;;;;;24.07;15.07;;;14.80;99.90;;;;;;5066774;28;20458;-71
2022/05/06 01:24:00;;;;;;;19.50;13.73;;;14.90;99.90;;;;;;5060818;28;20444;-71
2022/05/06 01:26:53;;;;;;;23.50;13.40;;;14.80;99.90;;;;;;5068295;28;20507;-71
2022/05/06 01:29:21;;;;;;;21.47;14.17;;;14.80;99.90;;;;;;5067327;28;20172;-71
2022/05/06 01:31:47;;;;;;;28.23;14.47;;;14.80;99.90;;;;;;5067248;28;20521;-71
2022/05/06 01:34:15;;;;;;;22.20;14.23;;;14.80;99.90;;;;;;5067128;28;20541;-71
2022/05/06 01:36:41;;;;;;;22.07;14.90;;;14.80;99.90;;;;;;5066280;28;20208;-71
2022/05/06 01:39:10;;;;;;;28.37;15.10;;;14.80;99.90;;;;;;5068284;28;20495;-71
2022/05/06 01:41:37;;;;;;;26.80;15.40;;;14.80;99.90;;;;;;5066142;28;20466;-71
2022/05/06 01:44:08;;;;;;;22.43;13.77;;;14.80;99.90;;;;;;5067834;28;20434;-71
2022/05/06 01:46:36;;;;;;;24.60;14.13;;;14.70;99.90;;;;;;5067247;28;20466;-71
2022/05/06 01:49:03;;;;;;;26.50;15.07;;;14.80;99.90;;;;;;5066273;28;20526;-70
2022/05/06 01:51:29;;;;;;;19.93;14.07;;;14.80;99.90;;;;;;5067925;28;20418;-71
2022/05/06 01:53:55;;;;;;;20.27;14.47;;;14.70;99.90;;;;;;5065827;28;20465;-71
2022/05/06 01:56:21;;;;;;;22.47;13.47;;;14.70;99.90;;;;;;5067209;28;20928;-71
2022/05/06 01:58:48;;;;;;;19.97;13.50;;;14.80;99.90;;;;;;5066757;28;20234;-71
2022/05/06 02:01:14;;;;;;;22.53;12.87;;;14.80;99.90;;;;;;5067213;28;20443;-70
2022/05/06 02:06:24;;;;;;;24.10;13.27;;;14.70;99.90;;;;;;5066602;28;20202;-71
2022/05/06 02:08:49;;;;;;;17.63;11.10;;;14.60;99.90;;;;;;5066252;28;20435;-71
2022/05/06 02:11:15;;;;;;;23.30;13.67;;;14.50;99.90;;;;;;5066680;28;20664;-71
2022/05/06 02:13:41;;;;;;;22.60;12.93;;;14.60;99.90;;;;;;5066199;28;20577;-71
2022/05/06 02:16:07;;;;;;;17.43;12.50;;;14.50;99.90;;;;;;5066655;28;20843;-70
2022/05/06 02:18:32;;;;;;;18.97;12.00;;;14.40;99.90;;;;;;5067419;28;20177;-71
2022/05/06 02:20:58;;;;;;;16.50;11.93;;;14.40;99.90;;;;;;5065610;28;20450;-71
2022/05/06 02:23:24;;;;;;;19.57;12.33;;;14.40;99.90;;;;;;5065653;28;20180;-71
2022/05/06 02:25:50;;;;;;;18.43;11.47;;;14.40;99.90;;;;;;5066444;28;20184;-71
2022/05/06 02:28:17;;;;;;;19.97;12.20;;;14.50;99.90;;;;;;5067166;28;20442;-71
2022/05/06 02:33:27;;;;;;;15.40;11.03;;;14.40;99.90;;;;;;5067370;28;20858;-70
2022/05/06 02:35:53;;;;;;;17.30;11.80;;;14.50;99.90;;;;;;5067269;28;20434;-70
2022/05/06 02:38:20;;;;;;;18.00;11.67;;;14.40;99.90;;;;;;5065041;28;20176;-71
2022/05/06 02:40:47;;;;;;;19.80;11.97;;;14.40;99.90;;;;;;5065298;28;20434;-71
2022/05/06 02:43:13;;;;;;;15.53;10.27;;;14.40;99.90;;;;;;5067672;28;20411;-71
2022/05/06 02:45:38;;;;;;;16.83;10.47;;;14.40;99.90;;;;;;5066206;28;20461;-70
2022/05/06 02:48:04;;;;;;;19.60;11.80;;;14.40;99.90;;;;;;5067318;28;20239;-72
2022/05/06 02:50:30;;;;;;;19.37;10.50;;;14.40;99.90;;;;;;5065479;28;20263;-71
2022/05/06 02:52:56;;;;;;;20.33;11.23;;;14.40;99.90;;;;;;5064135;28;20880;-70
2022/05/06 02:55:23;;;;;;;15.83;10.53;;;14.30;99.90;;;;;;5066749;28;20526;-71
2022/05/06 02:57:49;;;;;;;15.80;10.67;;;14.40;99.90;;;;;;5065142;28;20714;-71
2022/05/06 03:00:15;;;;;;;16.80;11.53;;;14.30;99.90;;;;;;5066248;28;20462;-70
2022/05/06 03:02:41;;;;;;;16.63;11.20;;;14.30;99.90;;;;;;5066184;28;20496;-71
2022/05/06 03:05:07;;;;;;;15.80;11.37;;;14.10;99.90;;;;;;5065893;28;20185;-71
2022/05/06 03:07:33;;;;;;;15.07;11.40;;;14.10;99.90;;;;;;5065001;28;20177;-71
2022/05/06 03:09:58;;;;;;;14.80;10.73;;;14.00;99.90;;;;;;5064072;28;20438;-71
2022/05/06 03:12:29;;;;;;;14.23;10.13;;;14.00;99.90;;;;;;5066777;28;20185;-71
2022/05/06 03:14:54;;;;;;;14.13;10.10;;;14.00;99.90;;;;;;5066651;28;20200;-71
2022/05/06 03:17:20;;;;;;;18.30;9.87;;;13.90;99.90;;;;;;5065096;28;20480;-71
2022/05/06 03:19:45;;;;;;;13.97;9.53;;;13.80;99.90;;;;;;5064894;28;20184;-71
2022/05/06 03:22:12;;;;;;;15.60;9.90;;;13.70;99.90;;;;;;5066786;28;20575;-70
2022/05/06 03:24:38;;;;;;;16.80;9.20;;;13.70;99.90;;;;;;5065678;28;20196;-70
2022/05/06 03:27:04;;;;;;;10.97;8.77;;;13.60;99.90;;;;;;5065451;28;20526;-70
2022/05/06 03:29:29;;;;;;;11.30;8.57;;;13.60;99.90;;;;;;5065719;28;20184;-71
2022/05/06 03:31:56;;;;;;;9.60;7.83;;;13.60;99.90;;;;;;5065917;28;20225;-71
2022/05/06 03:34:22;;;;;;;17.33;8.40;;;13.50;99.90;;;;;;5065077;28;20196;-71
2022/05/06 03:36:48;;;;;;;14.63;8.10;;;13.60;99.90;;;;;;5064977;28;20425;-70
2022/05/06 03:39:13;;;;;;;11.43;8.20;;;13.60;99.90;;;;;;5065278;28;20680;-70
2022/05/06 03:41:39;;;;;;;14.93;9.27;;;13.50;99.90;;;;;;5066129;28;20197;-70
2022/05/06 03:44:06;;;;;;;10.80;8.20;;;13.50;99.90;;;;;;5066406;28;20180;-70
2022/05/06 03:46:33;;;;;;;11.27;8.40;;;13.50;99.90;;;;;;5063653;28;20180;-71
2022/05/06 03:49:01;;;;;;;13.10;8.40;;;13.50;99.90;;;;;;5065750;28;20430;-70
2022/05/06 03:51:31;;;;;;;13.07;8.70;;;13.40;99.90;;;;;;5066312;28;20438;-70
2022/05/06 03:53:57;;;;;;;13.90;8.23;;;13.30;99.90;;;;;;5064239;28;20947;-71
2022/05/06 03:56:24;;;;;;;11.40;8.20;;;13.40;99.90;;;;;;5064329;28;20470;-70
2022/05/06 03:58:51;;;;;;;10.17;8.00;;;13.40;99.90;;;;;;5065053;28;20473;-71
2022/05/06 04:01:19;;;;;;;11.13;8.10;;;13.30;99.90;;;;;;5065547;28;20455;-72
2022/05/06 04:03:46;;;;;;;12.37;8.13;;;13.30;99.90;;;;;;5064321;28;20449;-71
2022/05/06 04:06:13;;;;;;;17.87;8.47;;;13.30;99.90;;;;;;5067022;28;20475;-69
2022/05/06 04:08:39;;;;;;;13.83;9.20;;;13.30;99.90;;;;;;5062276;28;20617;-72
2022/05/06 04:11:05;;;;;;;14.00;9.50;;;13.20;99.90;;;;;;5065880;28;20418;-70
2022/05/06 04:13:30;;;;;;;16.63;8.57;;;13.30;99.90;;;;;;5065576;28;20442;-70
2022/05/06 04:15:56;;;;;;;12.93;9.20;;;13.30;99.90;;;;;;5064780;28;20558;-71
2022/05/06 04:18:21;;;;;;;13.33;8.50;;;13.20;99.90;;;;;;5064386;28;20177;-70
2022/05/06 04:23:32;;;;;;;13.67;9.20;;;13.30;99.90;;;;;;5065758;28;20253;-70
2022/05/06 04:26:06;;;;;;;14.23;8.70;;;13.30;99.90;;;;;;5069650;28;20968;-71
2022/05/06 04:28:32;;;;;;;13.50;8.20;;;13.30;99.90;;;;;;5066268;28;20418;-71
2022/05/06 04:30:58;;;;;;;11.60;8.80;;;13.20;99.90;;;;;;5068478;28;20402;-71
2022/05/06 04:33:25;;;;;;;16.03;9.30;;;14.50;99.90;;;;;;5068868;28;20451;-70
2022/05/06 04:35:52;;;;;;;9.33;7.83;;;13.20;99.90;;;;;;5067739;28;20974;-71
2022/05/06 04:38:17;;;;;;;13.53;8.33;;;13.30;99.90;;;;;;5070138;28;20406;-72
2022/05/06 04:40:43;;;;;;;10.30;7.70;;;13.30;99.90;;;;;;5068166;28;20441;-71
2022/05/06 04:43:09;;;;;;;9.90;7.37;;;13.40;99.90;;;;;;5067565;28;20169;-71
2022/05/06 04:45:39;;;;;;;9.03;7.47;;;13.40;99.90;;;;;;5067300;28;20287;-71
2022/05/06 04:48:06;;;;;;;12.10;6.83;;;13.40;99.90;;;;;;5069491;28;20468;-71
2022/05/06 04:50:33;;;;;;;10.40;7.60;;;13.40;99.90;;;;;;5060172;28;20450;-71
2022/05/06 04:52:59;;;;;;;10.17;6.80;;;13.40;99.90;;;;;;5067530;28;20442;-71
2022/05/06 04:55:24;;;;;;;8.93;6.23;;;13.70;99.90;;;;;;5067721;28;20484;-71
2022/05/06 04:57:50;;;;;;;8.80;6.70;;;13.60;99.90;;;;;;5068327;28;20184;-71
2022/05/06 05:00:16;;;;;;;10.93;6.73;;;13.60;99.90;;;;;;5067972;28;20688;-71
2022/05/06 05:02:41;;;;;;;14.83;7.33;;;13.50;99.90;;;;;;5067192;28;20230;-71
2022/05/06 05:05:07;;;;;;;9.40;6.63;;;13.60;99.90;;;;;;5067690;28;20772;-71
2022/05/06 05:07:33;;;;;;;15.33;7.17;;;13.60;99.90;;;;;;5068079;28;20676;-71
2022/05/06 05:09:58;;;;;;;23.17;7.10;;;13.70;99.90;;;;;;5067660;28;20434;-71
2022/05/06 05:12:24;;;;;;;10.20;6.70;;;13.70;99.90;;;;;;5067330;28;20496;-71
2022/05/06 05:14:51;;;;;;;8.70;6.73;;;13.70;99.90;;;;;;5069213;28;20189;-73
2022/05/06 05:17:16;;;;;;;8.60;6.83;;;13.80;99.90;;;;;;5067460;28;20295;-71
2022/05/06 05:19:42;;;;;;;10.83;7.00;;;13.80;99.90;;;;;;5069114;28;20956;-70
2022/05/06 05:22:08;;;;;;;8.27;6.00;;;13.80;99.90;;;;;;5067547;28;20192;-71
2022/05/06 05:24:33;;;;;;;9.90;6.23;;;13.80;99.90;;;;;;5068193;28;20192;-70
2022/05/06 05:26:59;;;;;;;12.70;7.30;;;13.80;99.90;;;;;;5064168;28;20173;-71
2022/05/06 05:29:24;;;;;;;9.70;6.40;;;13.80;99.90;;;;;;5066507;28;20180;-71
2022/05/06 05:31:51;;;;;;;9.43;6.60;;;13.90;99.90;;;;;;5065146;28;20195;-71
2022/05/06 05:34:17;;;;;;;7.57;6.67;;;14.10;99.90;;;;;;5067508;28;20249;-71
2022/05/06 05:36:42;;;;;;;8.13;6.20;;;14.00;99.90;;;;;;5065622;28;20434;-71
2022/05/06 05:39:08;;;;;;;8.63;6.70;;;14.10;99.90;;;;;;5067962;28;20607;-71
2022/05/06 05:41:33;;;;;;;7.37;6.10;;;14.20;99.90;;;;;;5067881;28;20275;-71
2022/05/06 05:49:29;;;;;;;8.43;6.03;;;14.40;99.90;;;;;;5066726;28;20567;-71
2022/05/06 05:51:54;;;;;;;12.53;6.57;;;14.30;99.90;;;;;;5067487;28;20501;-70
2022/05/06 05:54:20;;;;;;;8.40;6.43;;;14.20;99.90;;;;;;5062141;28;20184;-71
2022/05/06 05:56:45;;;;;;;11.00;6.33;;;14.50;99.90;;;;;;5067422;28;20393;-71
2022/05/06 05:59:11;;;;;;;11.10;6.47;;;14.20;99.90;;;;;;5067524;28;20181;-71
2022/05/06 06:01:37;;;;;;;10.83;6.70;;;14.60;99.90;;;;;;5064100;28;20220;-70
2022/05/06 06:04:03;;;;;;;9.17;6.50;;;14.60;99.90;;;;;;5067693;28;20172;-71
2022/05/06 06:06:28;;;;;;;10.50;6.57;;;14.60;99.90;;;;;;5066647;28;20283;-71
2022/05/06 06:08:54;;;;;;;9.30;6.63;;;14.50;99.90;;;;;;5067340;28;21042;-71
2022/05/06 06:11:20;;;;;;;9.53;6.60;;;14.50;99.90;;;;;;5064865;28;20287;-72
2022/05/06 06:13:45;;;;;;;8.00;6.30;;;14.50;99.90;;;;;;5066506;28;20212;-72
2022/05/06 06:16:11;;;;;;;10.30;7.00;;;14.60;99.90;;;;;;5064140;28;20643;-71
2022/05/06 06:18:37;;;;;;;10.00;6.50;;;14.60;99.90;;;;;;5067429;28;20294;-71
2022/05/06 06:21:02;;;;;;;9.27;6.53;;;14.60;99.90;;;;;;5065749;28;20204;-70
2022/05/06 06:23:31;;;;;;;9.83;6.40;;;14.70;99.90;;;;;;5066838;28;20237;-72
2022/05/06 06:25:57;;;;;;;11.90;6.23;;;13.30;99.90;;;;;;5064734;28;20223;-72
2022/05/06 06:28:23;;;;;;;10.27;6.80;;;14.70;99.90;;;;;;5058311;28;20434;-70
2022/05/06 06:30:49;;;;;;;10.43;6.50;;;14.70;99.90;;;;;;5045781;28;20429;-70
2022/05/06 06:33:15;;;;;;;7.80;6.40;;;14.90;99.90;;;;;;5041443;28;20185;-71
2022/05/06 06:35:41;;;;;;;8.90;6.20;;;15.00;99.90;;;;;;5059073;28;20461;-70
2022/05/06 06:38:07;;;;;;;10.23;6.40;;;15.30;99.90;;;;;;5060191;28;20176;-71
2022/05/06 06:40:32;;;;;;;9.30;6.17;;;15.00;99.90;;;;;;5060916;28;20601;-70
2022/05/06 06:43:04;;;;;;;12.23;6.67;;;15.00;99.90;;;;;;5059206;28;20212;-71
2022/05/06 06:45:31;;;;;;;12.17;6.10;;;15.00;99.90;;;;;;5061489;28;20342;-70
2022/05/06 06:47:59;;;;;;;9.87;6.40;;;15.10;99.90;;;;;;5062280;28;20506;-71
2022/05/06 06:50:25;;;;;;;12.13;6.33;;;15.10;99.90;;;;;;5062715;28;20414;-72
2022/05/06 06:52:51;;;;;;;9.43;6.97;;;15.20;99.90;;;;;;5061924;28;20442;-71
2022/05/06 06:55:17;;;;;;;11.10;6.73;;;15.30;99.90;;;;;;5061901;28;20242;-71
2022/05/06 06:57:43;;;;;;;9.63;7.17;;;15.30;99.90;;;;;;5061759;28;20446;-72
2022/05/06 07:00:09;;;;;;;10.23;6.30;;;15.50;99.90;;;;;;5062611;28;20514;-72
2022/05/06 07:02:36;;;;;;;10.27;6.37;;;15.60;99.90;;;;;;5069601;28;20326;-71
2022/05/06 07:05:02;;;;;;;9.47;6.40;;;15.70;99.90;;;;;;5059855;28;20478;-72
2022/05/06 07:12:56;;;;;;;13.47;7.33;;;16.10;99.90;;;;;;5062753;28;20445;-70
2022/05/06 07:15:23;;;;;;;8.60;6.47;;;16.20;99.90;;;;;;5059103;28;20447;-70
2022/05/06 07:17:48;;;;;;;12.07;7.13;;;16.20;99.90;;;;;;5058786;28;20185;-70
2022/05/06 07:20:14;;;;;;;12.63;6.63;;;16.30;99.90;;;;;;5062618;28;20453;-70
2022/05/06 07:22:40;;;;;;;12.33;6.80;;;16.30;99.90;;;;;;5061566;28;20769;-70
2022/05/06 07:25:06;;;;;;;16.17;7.20;;;16.30;99.90;;;;;;5062621;28;20193;-70
2022/05/06 07:27:34;;;;;;;11.63;6.83;;;16.50;99.90;;;;;;5059850;28;20184;-71
2022/05/06 07:30:01;;;;;;;12.23;7.50;;;16.70;99.90;;;;;;5062959;28;21202;-70
2022/05/06 07:32:26;;;;;;;11.47;7.27;;;16.80;99.90;;;;;;5060084;28;21599;-70
2022/05/06 07:34:52;;;;;;;10.53;7.30;;;17.00;99.90;;;;;;5060434;28;20438;-69
2022/05/06 07:37:17;;;;;;;14.60;7.80;;;17.30;99.90;;;;;;5059187;28;20204;-71
2022/05/06 07:39:43;;;;;;;9.47;7.33;;;17.50;99.90;;;;;;5063170;28;20219;-70
2022/05/06 07:42:10;;;;;;;11.53;7.00;;;18.20;99.90;;;;;;5062901;28;20249;-70
2022/05/06 07:44:36;;;;;;;11.00;7.60;;;18.00;99.90;;;;;;5063744;28;20216;-72
2022/05/06 07:47:02;;;;;;;11.70;8.00;;;18.20;98.90;;;;;;5062171;28;20431;-70
2022/05/06 07:49:27;;;;;;;13.93;7.87;;;18.30;96.80;;;;;;5063540;28;20192;-71
2022/05/06 07:51:53;;;;;;;13.50;7.63;;;18.40;95.60;;;;;;5060400;28;20178;-71
2022/05/06 07:54:18;;;;;;;11.10;7.60;;;19.70;92.60;;;;;;5059042;28;20719;-70
2022/05/06 07:56:44;;;;;;;11.47;8.20;;;18.70;93.00;;;;;;5065117;28;20241;-70
2022/05/06 07:59:10;;;;;;;9.80;7.93;;;18.90;94.00;;;;;;5067767;28;20177;-71
2022/05/06 08:04:34;;;;;;;15.43;8.07;;;18.90;92.20;;;;;;5067314;28;20932;-70
2022/05/06 08:07:09;;;;;;;12.50;7.80;;;19.00;92.50;;;;;;5063828;28;20468;-70
2022/05/06 08:09:35;;;;;;;13.50;8.20;;;19.10;92.20;;;;;;5067569;28;20410;-70
2022/05/06 08:12:01;;;;;;;10.77;7.97;;;19.40;91.80;;;;;;5064399;28;20483;-71
2022/05/06 08:14:27;;;;;;;12.53;8.30;;;19.50;91.10;;;;;;5066666;28;20458;-69
2022/05/06 08:16:53;;;;;;;9.30;7.47;;;19.70;90.70;;;;;;5065724;28;20434;-70
2022/05/06 08:19:19;;;;;;;10.27;8.33;;;20.00;90.30;;;;;;5066123;28;20563;-70
2022/05/06 08:21:45;;;;;;;9.73;7.50;;;20.30;85.00;;;;;;5065649;28;20212;-70
2022/05/06 08:24:11;;;;;;;13.70;7.50;;;20.60;83.90;;;;;;5065321;28;20928;-70
2022/05/06 08:26:37;;;;;;;14.97;8.13;;;20.70;79.00;;;;;;5065104;28;20186;-70
2022/05/06 08:29:03;;;;;;;14.00;7.57;;;20.90;75.20;;;;;;5064466;28;20400;-71
2022/05/06 08:31:32;;;;;;;10.07;7.20;;;21.20;76.50;;;;;;5062493;28;20192;-70
2022/05/06 08:33:58;;;;;;;9.03;7.80;;;21.30;73.80;;;;;;5066210;28;20946;-71
2022/05/06 08:36:23;;;;;;;13.50;7.43;;;21.70;67.60;;;;;;5063342;28;20446;-70
2022/05/06 08:38:49;;;;;;;12.07;7.53;;;21.90;65.60;;;;;;5064093;28;20425;-71
2022/05/06 08:41:15;;;;;;;8.50;6.50;;;21.90;60.30;;;;;;5062211;28;20196;-72
2022/05/06 08:43:41;;;;;;;8.50;6.23;;;22.40;59.80;;;;;;5062658;28;20180;-70
2022/05/06 08:51:39;;;;;;;13.90;6.00;;;24.30;50.00;;;;;;5038814;28;21107;-72
2022/05/06 08:54:05;;;;;;;7.13;5.80;;;25.00;50.70;;;;;;5046737;28;20465;-72
2022/05/06 08:56:31;;;;;;;8.47;6.20;;;25.80;51.20;;;;;;5059840;28;20455;-72
2022/05/06 08:59:00;;;;;;;13.60;5.70;;;26.60;45.20;;;;;;5065046;28;20180;-72
2022/05/06 09:01:25;;;;;;;9.47;4.70;;;27.10;33.70;;;;;;5064104;28;20280;-73
2022/05/06 09:03:52;;;;;;;10.70;5.57;;;27.40;30.80;;;;;;5062222;28;20634;-74
2022/05/06 09:06:28;;;;;;;8.80;5.07;;;27.40;30.60;;;;;;5063098;28;20285;-74
2022/05/06 09:08:57;;;;;;;6.90;5.50;;;27.60;26.50;;;;;;5064055;28;20263;-74
2022/05/06 09:14:13;;;;;;;10.33;5.10;;;27.80;24.60;;;;;;5064332;28;20586;-74
2022/05/06 09:16:44;;;;;;;8.70;4.93;;;27.90;21.40;;;;;;5061169;28;20568;-74
2022/05/06 09:19:11;;;;;;;6.97;4.77;;;27.70;19.80;;;;;;5063069;28;20171;-74
2022/05/06 09:21:38;;;;;;;5.83;4.40;;;27.90;21.90;;;;;;5064643;28;20298;-74
2022/05/06 09:24:19;;;;;;;8.23;4.53;;;28.50;14.20;;;;;;5063334;28;20273;-73
2022/05/06 09:27:02;;;;;;;7.00;3.90;;;29.00;13.70;;;;;;5063227;28;20303;-73
2022/05/06 09:29:43;;;;;;;6.57;3.88;;;29.30;11.30;;;;;;5061330;28;20167;-74
2022/05/06 09:32:20;;;;;;;5.80;3.50;;;29.60;7.30;;;;;;5061311;28;20926;-74
2022/05/06 09:34:49;;;;;;;6.57;3.10;;;29.60;3.50;;;;;;5062910;28;20231;-75
2022/05/06 09:37:31;;;;;;;3.95;2.80;;;29.40;7.30;;;;;;5064503;28;20180;-74
2022/05/06 09:40:05;;;;;;;5.03;3.10;;;29.90;6.60;;;;;;5064964;28;20283;-73
2022/05/06 09:42:32;;;;;;;4.47;3.10;;;30.10;4.90;;;;;;5064823;28;20534;-74
2022/05/06 09:44:59;;;;;;;4.28;2.83;;;30.10;6.20;;;;;;5062778;28;20547;-74
2022/05/06 09:47:25;;;;;;;5.60;3.15;;;30.30;1.60;;;;;;5063393;28;20172;-73
2022/05/06 09:49:52;;;;;;;6.82;2.80;;;30.30;1.00;;;;;;5065479;28;20172;-73
2022/05/06 09:52:17;;;;;;;6.43;4.03;;;30.30;1.00;;;;;;5061577;28;20184;-73
2022/05/06 09:54:44;;;;;;;6.55;3.58;;;30.60;1.00;;;;;;5062153;28;20761;-74
2022/05/06 09:57:11;;;;;;;4.20;3.20;;;30.30;1.00;;;;;;5062755;28;20336;-74
2022/05/06 09:59:38;;;;;;;5.03;3.50;;;30.30;1.00;;;;;;5064179;28;21033;-72
2022/05/06 10:02:08;;;;;;;5.72;3.13;;;30.50;1.00;;;;;;5062828;28;20199;-73
2022/05/06 10:04:38;;;;;;;9.10;3.60;;;30.70;1.00;;;;;;5063719;28;20694;-74
2022/05/06 10:07:09;;;;;;;6.72;3.50;;;30.80;1.00;;;;;;5063492;28;20175;-71
2022/05/06 10:09:47;;;;;;;5.70;3.47;;;30.80;1.00;;;;;;5055088;28;20168;-70
2022/05/06 10:12:15;;;;;;;15.40;3.80;;;31.00;1.00;;;;;;5062512;28;20182;-71
2022/05/06 10:14:42;;;;;;;4.53;3.28;;;30.30;1.00;;;;;;5062129;28;20236;-72
2022/05/06 10:17:09;;;;;;;8.05;3.20;;;29.50;1.00;;;;;;5060184;28;20263;-70
2022/05/06 10:19:38;;;;;;;5.93;2.97;;;28.90;1.00;;;;;;5065154;28;20180;-71
2022/05/06 10:22:03;;;;;;;6.53;3.25;;;28.20;1.00;;;;;;5063865;28;20264;-72
2022/05/06 10:24:49;;;;;;;5.07;2.40;;;28.70;1.00;;;;;;5060796;28;20676;-72
2022/05/06 10:27:23;;;;;;;7.10;2.60;;;29.20;1.00;;;;;;5062361;28;20177;-72
2022/05/06 10:32:54;;;;;;;3.77;2.20;;;28.40;1.00;;;;;;5059897;28;20274;-73
2022/05/06 10:35:37;;;;;;;8.53;2.50;;;28.30;1.00;;;;;;5060988;28;20203;-73
2022/05/06 10:38:17;;;;;;;3.60;2.50;;;28.60;1.00;;;;;;5062969;28;20172;-73
2022/05/06 10:41:01;;;;;;;7.37;2.53;;;28.90;1.00;;;;;;5059308;28;20188;-73
2022/05/06 10:43:42;;;;;;;7.85;2.47;;;29.40;1.00;;;;;;5076260;28;20209;-73
2022/05/06 10:46:08;;;;;;;3.25;2.33;;;30.10;1.00;;;;;;5058649;28;20326;-73
2022/05/06 10:48:34;;;;;;;4.57;2.53;;;30.60;1.00;;;;;;5058669;28;20255;-74
2022/05/06 10:51:22;;;;;;;3.45;1.90;;;31.00;1.00;;;;;;5063763;28;20187;-71
2022/05/06 10:53:48;;;;;;;5.15;2.13;;;31.70;1.00;;;;;;5060207;28;20286;-74
2022/05/06 10:56:14;;;;;;;3.00;2.30;;;32.10;1.00;;;;;;5062887;28;20859;-74
2022/05/06 10:58:40;;;;;;;6.68;2.55;;;32.30;1.00;;;;;;5063045;28;20218;-74
2022/05/06 11:01:13;;;;;;;5.72;2.30;;;32.70;1.00;;;;;;5059989;28;20642;-73
2022/05/06 11:03:54;;;;;;;4.68;2.03;;;33.60;1.00;;;;;;5062811;28;20642;-73
2022/05/06 11:06:23;;;;;;;6.47;2.00;;;33.90;1.00;;;;;;5062282;28;20223;-73
2022/05/06 11:08:49;;;;;;;8.00;2.35;;;34.20;1.00;;;;;;5064287;28;20176;-73
2022/05/06 11:11:19;;;;;;;4.30;2.00;;;34.10;1.00;;;;;;5062242;28;20241;-73
2022/05/06 11:13:47;;;;;;;2.85;2.00;;;34.40;1.00;;;;;;5060759;28;20215;-72
2022/05/06 11:16:14;;;;;;;9.18;2.30;;;33.50;1.00;;;;;;5060518;28;20191;-72
2022/05/06 11:18:44;;;;;;;4.72;2.33;;;33.10;1.00;;;;;;5062280;28;20249;-73
2022/05/06 11:21:23;;;;;;;5.43;2.00;;;33.20;1.00;;;;;;5062517;28;20178;-73
2022/05/06 11:23:49;;;;;;;3.50;1.98;;;33.20;1.00;;;;;;5063267;28;20203;-72
2022/05/06 11:26:27;;;;;;;3.38;2.03;;;32.80;1.00;;;;;;5058168;28;20249;-72
2022/05/06 11:29:03;;;;;;;7.45;2.10;;;32.70;1.00;;;;;;5065538;28;20540;-72
2022/05/06 11:31:29;;;;;;;4.78;2.03;;;32.40;1.00;;;;;;5064266;28;20190;-72
2022/05/06 11:33:59;;;;;;;5.00;2.17;;;32.20;1.00;;;;;;5068653;28;20710;-72
2022/05/06 11:36:25;;;;;;;3.78;2.17;;;33.10;1.00;;;;;;5067492;28;20206;-72
2022/05/06 11:38:50;;;;;;;3.55;1.95;;;34.20;1.00;;;;;;5065715;28;20176;-73
2022/05/06 11:41:17;;;;;;;3.25;1.88;;;35.00;1.00;;;;;;5064736;28;20206;-73
2022/05/06 11:43:44;;;;;;;7.43;2.40;;;35.10;1.00;;;;;;5066582;28;20184;-73
2022/05/06 11:49:02;;;;;;;5.03;2.28;;;34.80;1.00;;;;;;5066412;28;20187;-73
2022/05/06 11:51:31;;;;;;;4.55;1.98;;;34.70;1.00;;;;;;5066831;28;20172;-73
2022/05/06 11:53:57;;;;;;;4.32;2.33;;;34.80;1.00;;;;;;5065519;28;20179;-72
2022/05/06 11:56:27;;;;;;;5.15;2.00;;;34.50;1.00;;;;;;5065642;28;20262;-73
2022/05/06 11:58:56;;;;;;;6.82;2.15;;;34.00;1.00;;;;;;5066875;28;20206;-73
2022/05/06 12:01:29;;;;;;;4.20;2.08;;;34.10;1.00;;;;;;5064574;28;20203;-72
2022/05/06 12:04:02;;;;;;;3.80;2.03;;;34.80;1.00;;;;;;5062245;28;20259;-73
2022/05/06 12:06:27;;;;;;;3.60;1.80;;;35.20;1.00;;;;;;5065461;28;20192;-72
2022/05/06 12:09:06;;;;;;;4.13;2.00;;;36.10;1.00;;;;;;5067969;28;20556;-73
2022/05/06 12:11:32;;;;;;;4.93;2.22;;;36.50;1.00;;;;;;5064664;28;20594;-73
2022/05/06 12:14:05;;;;;;;3.30;1.95;;;37.20;1.00;;;;;;5065929;28;20259;-72
2022/05/06 12:16:31;;;;;;;2.63;1.60;;;38.30;1.00;;;;;;5062963;28;20211;-73
2022/05/06 12:18:58;;;;;;;3.28;2.08;;;38.90;1.00;;;;;;5066175;28;20682;-73
2022/05/06 12:21:26;;;;;;;3.97;1.90;;;38.20;1.00;;;;;;5066396;28;20679;-72
2022/05/06 12:24:00;;;;;;;3.40;1.90;;;38.40;1.00;;;;;;5065644;28;20180;-73
2022/05/06 12:26:30;;;;;;;4.40;2.10;;;39.00;1.00;;;;;;5063631;28;20195;-72
2022/05/06 12:28:56;;;;;;;2.58;1.65;;;39.00;1.00;;;;;;5065781;28;20214;-74
2022/05/06 12:31:32;;;;;;;5.10;1.80;;;39.30;1.00;;;;;;5063814;28;20211;-73
2022/05/06 12:34:03;;;;;;;5.57;2.03;;;39.50;1.00;;;;;;5066826;28;20194;-73
2022/05/06 12:36:29;;;;;;;5.50;1.88;;;39.70;1.00;;;;;;5064794;28;20219;-73
2022/05/06 12:38:54;;;;;;;3.00;1.90;;;40.00;1.00;;;;;;5065481;28;20184;-73
2022/05/06 12:41:26;;;;;;;2.70;1.90;;;40.00;1.00;;;;;;5065424;28;20203;-73
2022/05/06 12:43:56;;;;;;;4.53;1.92;;;40.00;1.00;;;;;;5064701;28;20216;-74
2022/05/06 12:46:26;;;;;;;3.15;1.80;;;39.30;1.00;;;;;;5065328;28;20188;-73
2022/05/06 12:51:39;;;;;;;3.30;1.80;;;40.40;1.00;;;;;;5064879;28;20190;-74
2022/05/06 12:54:04;;;;;;;5.00;1.80;;;40.70;1.00;;;;;;5065997;28;20593;-74
2022/05/06 12:56:30;;;;;;;2.83;1.77;;;41.20;1.00;;;;;;5062600;28;20235;-73
2022/05/06 12:58:55;;;;;;;4.55;1.70;;;41.60;1.00;;;;;;5063105;28;20204;-72
2022/05/06 13:01:22;;;;;;;2.58;1.70;;;42.00;1.00;;;;;;5063338;28;20204;-74
2022/05/06 13:03:47;;;;;;;4.57;1.90;;;41.50;1.00;;;;;;5066133;28;20264;-74
2022/05/06 13:06:13;;;;;;;3.55;1.70;;;42.00;1.00;;;;;;5065799;28;20283;-74
2022/05/06 13:08:38;;;;;;;4.00;1.75;;;41.50;1.00;;;;;;5064624;28;20176;-74
2022/05/06 13:11:04;;;;;;;3.50;2.00;;;41.50;1.00;;;;;;5064778;28;20237;-72
2022/05/06 13:13:29;;;;;;;2.55;1.60;;;41.40;1.00;;;;;;5066042;28;20207;-73
2022/05/06 13:15:56;;;;;;;4.80;1.85;;;41.90;1.00;;;;;;5064860;28;20192;-72
2022/05/06 13:18:22;;;;;;;5.28;2.10;;;41.90;1.00;;;;;;5065227;28;20192;-73
2022/05/06 13:20:47;;;;;;;5.25;1.88;;;41.50;1.00;;;;;;5066345;28;20227;-74